Time;durP1;ratioP1;P1;durP2;ratioP2;P2;SDS_P1;SDS_P2;PMS_P1;PMS_P2;Temp;Humidity;BMP_temperature;BMP_pressure;BME280_temperature;BME280_humidity;BME280_pressure;Samples;Min_cycle;Max_cycle;Signal;HPM_P1;HPM_P2
2022/06/29 00:00:20;;;;;;;8.63;7.72;;;;;;;20.54;84.97;95361.28;4997669;28;20266;-65
2022/06/29 00:02:47;;;;;;;7.28;6.78;;;;;;;20.64;84.19;95370.06;4994368;28;20896;-65
2022/06/29 00:05:16;;;;;;;9.00;8.20;;;;;;;20.75;83.83;95366.75;4996587;28;20238;-66
2022/06/29 00:07:44;;;;;;;8.82;8.07;;;;;;;20.41;85.15;95363.03;4992810;28;20203;-65
2022/06/29 00:10:14;;;;;;;9.10;8.20;;;;;;;19.81;88.17;95368.69;4993219;28;20261;-65
2022/06/29 00:12:41;;;;;;;8.57;7.95;;;;;;;19.91;87.93;95364.59;4997334;28;20203;-65
2022/06/29 00:15:09;;;;;;;8.73;8.13;;;;;;;19.88;87.89;95370.78;4997922;28;20913;-65
2022/06/29 00:17:36;;;;;;;8.90;8.18;;;;;;;19.86;88.48;95370.06;4996941;28;20195;-65
2022/06/29 00:20:05;;;;;;;8.15;7.45;;;;;;;20.23;86.77;95365.91;4997165;28;20203;-65
2022/06/29 00:22:32;;;;;;;7.85;7.13;;;;;;;20.03;86.07;95374.13;4995287;28;20280;-65
2022/06/29 00:24:59;;;;;;;9.07;8.20;;;;;;;20.24;85.73;95362.41;4995893;28;20340;-65
2022/06/29 00:27:27;;;;;;;7.70;6.95;;;;;;;20.55;85.10;95371.50;4997438;28;20243;-65
2022/06/29 00:29:54;;;;;;;8.07;7.28;;;;;;;20.83;83.42;95370.44;4995029;28;20212;-65
2022/06/29 00:32:21;;;;;;;9.10;8.25;;;;;;;19.89;86.23;95369.03;4998037;28;20219;-64
2022/06/29 00:34:48;;;;;;;8.77;8.13;;;;;;;19.54;88.32;95377.31;4997767;28;20227;-65
2022/06/29 00:37:15;;;;;;;10.20;8.15;;;;;;;19.32;89.42;95358.91;4997031;28;20208;-64
2022/06/29 00:39:41;;;;;;;8.45;7.72;;;;;;;19.57;89.34;95359.03;4996688;28;20211;-66
2022/06/29 00:42:09;;;;;;;8.40;7.63;;;;;;;20.16;86.57;95345.75;4995272;28;20233;-65
2022/06/29 00:44:37;;;;;;;12.93;8.05;;;;;;;19.90;86.16;95352.63;4995411;28;20268;-65
2022/06/29 00:47:05;;;;;;;9.18;8.15;;;;;;;19.82;86.49;95360.88;4995435;28;20212;-65
2022/06/29 00:49:34;;;;;;;12.70;7.78;;;;;;;19.63;86.69;95358.66;4997514;28;20212;-64
2022/06/29 00:52:05;;;;;;;9.88;7.70;;;;;;;19.69;87.36;95360.84;4996793;28;21816;-64
2022/06/29 00:54:35;;;;;;;8.38;7.78;;;;;;;19.21;89.17;95351.06;4996595;28;20230;-64
2022/06/29 00:57:06;;;;;;;9.25;8.20;;;;;;;19.10;89.95;95346.56;4995840;28;20199;-65
2022/06/29 00:59:41;;;;;;;9.18;8.38;;;;;;;19.35;90.02;95353.56;4995663;28;20216;-64
2022/06/29 01:02:07;;;;;;;7.53;6.88;;;;;;;19.77;87.94;95347.47;4995164;28;20725;-65
2022/06/29 01:04:34;;;;;;;7.70;6.93;;;;;;;19.99;86.58;95346.88;4996432;28;20228;-65
2022/06/29 01:07:01;;;;;;;9.65;8.90;;;;;;;20.17;85.48;95339.66;4995606;28;20207;-65
2022/06/29 01:09:28;;;;;;;8.65;7.80;;;;;;;19.95;86.61;95346.25;4995906;28;20214;-65
2022/06/29 01:11:55;;;;;;;8.13;7.43;;;;;;;19.72;87.63;95349.50;4995033;28;21721;-66
2022/06/29 01:14:22;;;;;;;8.77;7.95;;;;;;;19.48;88.33;95346.72;4994099;28;20234;-64
2022/06/29 01:16:50;;;;;;;8.23;7.25;;;;;;;19.75;87.75;95338.19;4996482;28;20215;-65
2022/06/29 01:19:17;;;;;;;7.35;6.35;;;;;;;20.09;86.25;95326.44;4994593;28;20347;-65
2022/06/29 01:21:46;;;;;;;7.45;6.90;;;;;;;20.23;85.15;95329.78;4994741;28;20297;-65
2022/06/29 01:24:14;;;;;;;8.60;7.80;;;;;;;20.19;84.73;95328.31;4995440;28;20204;-65
2022/06/29 01:26:41;;;;;;;8.38;7.68;;;;;;;20.21;84.25;95330.78;4996352;28;20238;-65
2022/06/29 01:29:08;;;;;;;8.00;7.30;;;;;;;20.29;83.81;95331.91;4994673;28;20208;-65
2022/06/29 01:31:35;;;;;;;10.43;7.72;;;;;;;20.26;83.82;95329.56;4994604;28;20235;-64
2022/06/29 01:34:02;;;;;;;8.93;8.10;;;;;;;20.08;84.26;95325.63;4994306;28;20227;-64
2022/06/29 01:36:29;;;;;;;8.20;7.57;;;;;;;19.97;84.76;95330.69;4997295;28;20683;-64
2022/06/29 01:38:56;;;;;;;8.65;7.95;;;;;;;19.94;85.71;95334.28;4996218;28;20290;-65
2022/06/29 01:41:24;;;;;;;10.88;8.13;;;;;;;19.79;86.05;95344.78;4993802;28;20374;-66
2022/06/29 01:43:51;;;;;;;9.95;7.78;;;;;;;19.72;86.21;95344.34;4996025;28;20285;-65
2022/06/29 01:46:17;;;;;;;8.95;8.10;;;;;;;19.48;87.39;95341.56;4994027;28;20279;-65
2022/06/29 01:48:44;;;;;;;10.93;7.97;;;;;;;19.55;87.13;95340.28;4994166;28;20684;-65
2022/06/29 01:51:11;;;;;;;9.30;8.27;;;;;;;19.65;86.63;95338.75;4995718;28;20681;-65
2022/06/29 01:53:38;;;;;;;9.05;8.30;;;;;;;19.54;86.70;95325.75;4994895;28;20219;-65
2022/06/29 01:56:06;;;;;;;9.48;8.70;;;;;;;19.66;86.22;95330.09;4994869;28;20257;-65
2022/06/29 01:58:34;;;;;;;8.50;7.95;;;;;;;19.83;85.44;95326.41;4994860;28;20713;-65
2022/06/29 02:01:01;;;;;;;9.63;8.73;;;;;;;19.24;88.42;95325.09;5000558;28;20264;-66
2022/06/29 02:03:28;;;;;;;9.98;9.10;;;;;;;18.72;91.46;95319.78;5001699;28;20214;-65
2022/06/29 02:05:55;;;;;;;10.00;9.18;;;;;;;19.00;90.57;95323.16;5000141;28;20212;-66
2022/06/29 02:08:21;;;;;;;8.77;8.02;;;;;;;19.28;89.62;95324.00;4999145;28;20207;-66
2022/06/29 02:10:48;;;;;;;9.85;8.95;;;;;;;19.41;88.71;95313.72;4999523;28;20653;-65
2022/06/29 02:13:15;;;;;;;14.02;8.70;;;;;;;19.00;89.64;95309.44;4997776;28;20298;-65
2022/06/29 02:15:43;;;;;;;9.73;8.75;;;;;;;18.87;91.56;95314.50;4999967;28;20649;-66
2022/06/29 02:18:10;;;;;;;8.60;7.97;;;;;;;19.20;90.06;95313.31;5000131;28;20207;-65
2022/06/29 02:20:37;;;;;;;9.82;8.63;;;;;;;19.23;89.62;95313.97;4999927;28;20198;-65
2022/06/29 02:23:04;;;;;;;8.80;7.85;;;;;;;19.39;88.41;95313.81;5000440;28;20207;-65
2022/06/29 02:25:30;;;;;;;9.07;8.27;;;;;;;19.62;87.12;95310.59;4997637;28;20284;-65
2022/06/29 02:27:57;;;;;;;8.57;7.38;;;;;;;19.81;85.83;95302.47;4997713;28;20286;-66
2022/06/29 02:34:43;;;;;;;8.50;7.82;;;;;;;19.90;85.52;95307.03;4998203;28;20567;-65
2022/06/29 02:35:57;;;;;;;10.52;8.13;;;;;;;19.82;85.00;95314.44;4999332;28;20230;-66
2022/06/29 02:38:24;;;;;;;7.65;7.25;;;;;;;19.81;85.07;95301.66;4999562;28;20207;-66
2022/06/29 02:40:51;;;;;;;8.18;7.55;;;;;;;19.70;85.02;95305.78;4999109;28;20210;-67
2022/06/29 02:43:17;;;;;;;9.60;8.80;;;;;;;19.54;86.09;95305.13;4998378;28;20205;-65
2022/06/29 02:45:44;;;;;;;8.35;7.60;;;;;;;19.48;86.07;95295.19;4998594;28;20199;-65
2022/06/29 02:48:13;;;;;;;8.60;8.07;;;;;;;19.41;86.77;95299.06;4997909;28;20265;-65
2022/06/29 02:50:39;;;;;;;8.52;7.43;;;;;;;19.36;87.09;95296.78;5000354;28;20207;-66
2022/06/29 02:53:06;;;;;;;9.25;8.30;;;;;;;19.27;86.75;95306.88;4999245;28;20651;-65
2022/06/29 02:55:33;;;;;;;7.00;6.38;;;;;;;18.82;86.10;95301.09;4998553;28;20228;-66
2022/06/29 02:58:00;;;;;;;10.82;7.03;;;;;;;18.85;87.12;95292.34;4997954;28;20206;-65
2022/06/29 03:00:26;;;;;;;10.45;7.63;;;;;;;19.14;86.18;95299.09;4999114;28;20242;-65
2022/06/29 03:02:53;;;;;;;9.70;6.95;;;;;;;19.42;84.24;95295.56;4997776;28;20335;-66
2022/06/29 03:05:22;;;;;;;7.25;6.63;;;;;;;19.57;83.18;95298.94;4997580;28;20234;-66
2022/06/29 03:07:48;;;;;;;6.57;5.68;;;;;;;19.60;82.55;95304.72;4997806;28;22630;-66
2022/06/29 03:10:15;;;;;;;5.70;5.30;;;;;;;19.63;82.50;95296.78;4997680;28;20200;-65
2022/06/29 03:12:42;;;;;;;6.97;5.75;;;;;;;19.67;81.92;95293.09;4997174;28;20210;-65
2022/06/29 03:15:09;;;;;;;9.18;6.32;;;;;;;19.82;80.61;95298.13;4997142;28;20897;-65
2022/06/29 03:17:36;;;;;;;5.63;5.22;;;;;;;19.75;80.70;95296.91;4997030;28;21046;-65
2022/06/29 03:20:04;;;;;;;7.25;6.22;;;;;;;19.83;80.68;95292.06;4999397;28;20219;-66
2022/06/29 03:22:33;;;;;;;6.10;5.80;;;;;;;19.60;79.92;95296.97;4996913;28;20303;-66
2022/06/29 03:25:00;;;;;;;6.68;6.18;;;;;;;19.42;81.42;95294.75;4998108;28;20315;-66
2022/06/29 03:27:26;;;;;;;6.10;5.15;;;;;;;19.51;81.02;95295.00;4996811;28;20243;-66
2022/06/29 03:29:53;;;;;;;6.32;5.82;;;;;;;19.41;81.71;95293.91;4996449;28;20298;-65
2022/06/29 03:32:20;;;;;;;8.40;6.68;;;;;;;19.79;80.66;95288.06;4995737;28;20261;-66
2022/06/29 03:34:47;;;;;;;5.68;5.38;;;;;;;20.66;77.14;95296.72;4997686;28;20236;-65
2022/06/29 03:37:13;;;;;;;5.10;4.78;;;;;;;20.92;74.91;95299.22;4998248;28;20211;-65
2022/06/29 03:39:44;;;;;;;7.80;5.93;;;;;;;20.83;74.87;95303.28;4997482;28;20203;-66
2022/06/29 03:42:11;;;;;;;6.88;5.95;;;;;;;20.68;75.17;95309.50;4997800;28;22044;-65
2022/06/29 03:44:38;;;;;;;5.78;5.32;;;;;;;20.43;76.52;95304.38;4997954;28;20196;-66
2022/06/29 03:47:04;;;;;;;6.63;5.97;;;;;;;20.23;76.74;95306.53;4997305;28;20212;-66
2022/06/29 03:49:31;;;;;;;6.60;5.60;;;;;;;20.08;77.50;95304.97;4996950;28;20286;-68
2022/06/29 03:51:58;;;;;;;6.38;5.78;;;;;;;19.92;78.63;95296.63;4999228;28;20200;-66
2022/06/29 03:54:25;;;;;;;9.35;5.75;;;;;;;19.91;79.09;95298.38;4997979;28;20228;-67
2022/06/29 03:56:53;;;;;;;8.20;5.90;;;;;;;19.94;78.83;95282.69;4997844;28;20211;-66
2022/06/29 03:59:19;;;;;;;9.65;6.10;;;;;;;20.36;77.08;95293.63;4994806;28;20211;-66
2022/06/29 04:01:46;;;;;;;6.07;5.50;;;;;;;20.73;75.98;95291.94;4996732;28;20212;-65
2022/06/29 04:04:13;;;;;;;6.60;6.10;;;;;;;21.44;73.37;95283.44;4996954;28;20237;-66
2022/06/29 04:06:40;;;;;;;25.38;19.52;;;;;;;22.66;69.19;95280.22;4997218;28;20261;-66
2022/06/29 04:09:07;;;;;;;16.70;13.13;;;;;;;23.92;64.85;95277.03;4996751;28;20207;-66
2022/06/29 04:11:53;;;;;;;8.00;7.38;;;;;;;24.56;61.58;95269.03;4996017;28;20212;-67
2022/06/29 04:14:24;;;;;;;5.78;5.25;;;;;;;25.72;58.67;95266.69;4997436;28;20230;-65
2022/06/29 04:16:52;;;;;;;6.45;5.90;;;;;;;25.92;57.96;95257.88;4996796;28;20215;-66
2022/06/29 04:19:19;;;;;;;6.03;5.57;;;;;;;25.86;57.18;95255.81;4998952;28;20776;-66
2022/06/29 04:21:46;;;;;;;5.68;5.28;;;;;;;25.43;58.71;95257.06;4996642;28;20219;-66
2022/06/29 04:24:13;;;;;;;7.07;6.53;;;;;;;24.65;60.81;95264.84;4995029;28;20277;-66
2022/06/29 04:26:40;;;;;;;6.72;6.05;;;;;;;24.48;62.12;95262.88;4997783;28;20223;-66
2022/06/29 04:29:07;;;;;;;7.35;6.75;;;;;;;24.48;62.29;95273.28;4996589;28;20926;-66
2022/06/29 04:31:35;;;;;;;6.57;6.18;;;;;;;24.59;61.98;95270.56;4997715;28;20668;-66
2022/06/29 04:34:03;;;;;;;7.07;6.53;;;;;;;25.01;61.01;95274.66;4997386;28;20212;-66
2022/06/29 04:36:30;;;;;;;7.00;6.18;;;;;;;25.41;59.56;95271.19;4996278;28;20814;-66
2022/06/29 04:38:57;;;;;;;7.50;6.55;;;;;;;25.80;58.69;95261.59;4996033;28;22606;-65
2022/06/29 04:41:24;;;;;;;20.35;14.05;;;;;;;26.63;56.14;95260.00;4997827;28;20273;-66
2022/06/29 04:43:51;;;;;;;18.00;15.82;;;;;;;26.88;55.17;95254.13;4998984;28;20685;-69
2022/06/29 04:46:22;;;;;;;9.45;8.30;;;;;;;27.85;52.53;95253.44;4998817;28;20198;-67
2022/06/29 04:48:53;;;;;;;7.88;7.22;;;;;;;28.95;49.81;95259.66;4996356;28;20199;-67
2022/06/29 04:51:20;;;;;;;7.43;6.45;;;;;;;29.90;47.24;95255.72;4999059;28;20234;-66
2022/06/29 04:53:49;;;;;;;7.30;6.65;;;;;;;29.87;46.59;95263.06;4995134;28;20202;-66
2022/06/29 04:56:17;;;;;;;14.45;12.95;;;;;;;29.77;46.72;95258.00;4995358;28;20918;-66
2022/06/29 04:58:44;;;;;;;17.90;14.70;;;;;;;30.50;45.85;95270.19;4994611;28;20691;-66
2022/06/29 05:01:11;;;;;;;15.80;14.15;;;;;;;31.04;44.56;95269.38;4997361;28;20208;-67
2022/06/29 05:03:38;;;;;;;9.82;8.68;;;;;;;30.95;45.16;95273.00;4995419;28;20264;-67
2022/06/29 05:06:06;;;;;;;13.20;9.30;;;;;;;30.97;43.87;95271.03;4995801;28;20285;-66
2022/06/29 05:08:33;;;;;;;8.80;7.95;;;;;;;30.95;44.15;95275.63;4994494;28;20264;-65
2022/06/29 05:11:00;;;;;;;8.85;8.13;;;;;;;30.24;46.08;95271.25;4997014;28;20218;-67
2022/06/29 05:13:26;;;;;;;9.63;8.77;;;;;;;28.79;49.46;95272.63;4997280;28;20207;-67
2022/06/29 05:15:53;;;;;;;8.70;8.00;;;;;;;28.03;51.24;95270.72;4996884;28;20255;-66
2022/06/29 05:18:20;;;;;;;9.82;7.90;;;;;;;28.09;51.05;95274.50;4995662;28;20204;-66
2022/06/29 05:20:46;;;;;;;9.45;8.57;;;;;;;27.82;51.88;95272.84;4996094;28;20218;-66
2022/06/29 05:23:15;;;;;;;11.60;8.95;;;;;;;27.35;52.73;95280.06;4995985;28;20531;-65
2022/06/29 05:25:41;;;;;;;8.48;7.90;;;;;;;27.70;52.20;95279.28;4993479;28;20328;-65
2022/06/29 05:28:08;;;;;;;10.02;8.60;;;;;;;29.81;47.69;95266.34;4994479;28;20244;-66
2022/06/29 05:30:35;;;;;;;10.10;9.10;;;;;;;31.54;43.10;95270.75;4996311;28;20191;-65
2022/06/29 05:33:02;;;;;;;9.10;8.25;;;;;;;32.96;41.23;95278.66;4998112;28;20203;-66
2022/06/29 05:35:33;;;;;;;11.02;7.55;;;;;;;34.12;38.46;95272.38;4998814;28;20231;-67
2022/06/29 05:38:00;;;;;;;8.57;7.82;;;;;;;35.19;36.97;95266.72;5000243;28;21758;-68
2022/06/29 05:40:28;;;;;;;9.88;9.10;;;;;;;35.86;35.61;95265.94;4999567;28;20216;-65
2022/06/29 05:42:55;;;;;;;10.20;8.82;;;;;;;35.13;36.08;95269.16;5000357;28;20250;-66
2022/06/29 05:45:22;;;;;;;8.93;8.15;;;;;;;35.34;37.10;95264.78;5000826;28;20744;-66
2022/06/29 05:47:49;;;;;;;10.07;9.27;;;;;;;35.71;36.37;95271.34;5001396;28;20767;-66
2022/06/29 05:50:16;;;;;;;8.75;7.97;;;;;;;36.32;35.05;95269.41;4998043;28;20214;-67
2022/06/29 05:52:43;;;;;;;10.15;9.30;;;;;;;35.42;36.76;95283.91;4999234;28;20207;-66
2022/06/29 05:55:10;;;;;;;11.85;9.40;;;;;;;35.54;36.36;95284.16;4998435;28;20289;-67
2022/06/29 05:57:38;;;;;;;10.25;9.43;;;;;;;35.40;36.89;95279.81;5001735;28;20218;-68
2022/06/29 06:00:07;;;;;;;9.75;8.50;;;;;;;35.99;34.87;95281.78;4999705;28;20207;-67
2022/06/29 06:02:33;;;;;;;10.45;9.50;;;;;;;36.11;34.47;95278.34;4999612;28;20206;-66
2022/06/29 06:05:00;;;;;;;9.82;8.88;;;;;;;36.01;34.91;95285.88;5001612;28;20231;-67
2022/06/29 06:07:27;;;;;;;9.82;8.98;;;;;;;35.21;36.48;95281.38;4999697;28;20305;-66
2022/06/29 06:09:54;;;;;;;10.45;9.57;;;;;;;33.67;39.93;95287.56;4997593;28;20231;-66
2022/06/29 06:12:21;;;;;;;10.60;9.80;;;;;;;34.00;38.90;95281.81;5000519;28;20293;-66
2022/06/29 06:14:49;;;;;;;9.52;8.82;;;;;;;34.33;39.12;95282.91;5001108;28;20975;-65
2022/06/29 06:17:15;;;;;;;9.32;8.52;;;;;;;34.33;38.09;95282.91;5000947;28;20284;-66
2022/06/29 06:19:42;;;;;;;14.90;9.18;;;;;;;33.02;40.21;95285.81;4997345;28;20234;-66
2022/06/29 06:22:09;;;;;;;12.13;9.50;;;;;;;32.59;41.35;95278.75;4998622;28;20236;-66
2022/06/29 06:24:36;;;;;;;9.23;8.50;;;;;;;32.84;40.74;95272.22;4999693;28;20268;-66
2022/06/29 06:27:03;;;;;;;11.05;8.35;;;;;;;32.58;41.64;95274.47;4999493;28;20228;-66
2022/06/29 06:29:30;;;;;;;9.90;7.30;;;;;;;32.60;41.54;95267.22;4998437;28;20685;-66
2022/06/29 06:31:58;;;;;;;9.23;8.25;;;;;;;32.81;41.39;95269.13;5000267;28;20584;-66
2022/06/29 06:34:26;;;;;;;11.68;8.57;;;;;;;32.59;42.07;95262.94;4999639;28;20219;-66
2022/06/29 06:36:52;;;;;;;8.98;8.27;;;;;;;32.54;42.21;95254.78;4998859;28;20233;-66
2022/06/29 06:39:19;;;;;;;11.75;7.63;;;;;;;32.26;42.37;95265.91;4997953;28;20200;-66
2022/06/29 06:41:45;;;;;;;8.70;7.60;;;;;;;31.49;44.07;95270.44;4998316;28;20775;-67
2022/06/29 06:44:12;;;;;;;25.45;19.33;;;;;;;31.52;43.84;95267.47;4997188;28;20269;-67
2022/06/29 06:46:38;;;;;;;11.05;8.63;;;;;;;31.63;43.60;95259.19;4998330;28;20259;-66
2022/06/29 06:49:06;;;;;;;9.68;8.70;;;;;;;31.08;45.13;95259.34;4994357;28;20214;-67
2022/06/29 06:51:33;;;;;;;11.63;9.63;;;;;;;30.70;46.50;95260.97;4997315;28;20739;-66
2022/06/29 06:54:01;;;;;;;12.93;8.93;;;;;;;30.74;46.92;95257.03;4998656;28;20203;-66
2022/06/29 06:56:27;;;;;;;8.50;7.85;;;;;;;30.70;46.43;95246.06;4996405;28;20224;-66
2022/06/29 06:58:54;;;;;;;14.40;8.00;;;;;;;30.42;46.30;95250.09;4998375;28;20717;-67
2022/06/29 07:01:21;;;;;;;10.48;9.15;;;;;;;29.74;47.83;95248.66;4996277;28;20200;-66
2022/06/29 07:03:48;;;;;;;8.88;7.60;;;;;;;29.45;49.32;95253.53;4995419;28;20199;-66
2022/06/29 07:06:16;;;;;;;9.23;6.90;;;;;;;29.49;49.10;95256.66;4995815;28;20224;-66
2022/06/29 07:08:43;;;;;;;9.10;8.18;;;;;;;29.48;48.45;95255.84;4995086;28;20207;-65
2022/06/29 07:11:10;;;;;;;14.18;8.48;;;;;;;29.31;49.85;95246.31;4994021;28;20883;-64
2022/06/29 07:13:37;;;;;;;17.80;10.18;;;;;;;29.38;50.50;95247.31;4993878;28;20335;-66
2022/06/29 07:16:06;;;;;;;28.70;14.20;;;;;;;29.57;49.15;95243.59;4994880;28;20806;-66
2022/06/29 07:18:33;;;;;;;32.00;14.82;;;;;;;29.47;49.64;95245.53;4996652;28;20210;-65
2022/06/29 07:21:01;;;;;;;8.88;7.30;;;;;;;29.42;49.29;95243.44;4998701;28;20200;-66
2022/06/29 07:23:29;;;;;;;6.82;6.22;;;;;;;29.20;49.79;95244.03;4999899;28;20208;-67
2022/06/29 07:25:56;;;;;;;7.53;6.55;;;;;;;29.20;49.35;95238.78;4998044;28;20230;-65
2022/06/29 07:28:23;;;;;;;9.98;9.05;;;;;;;29.02;49.57;95251.97;4999378;28;20249;-69
2022/06/29 07:30:51;;;;;;;11.50;8.25;;;;;;;28.58;50.14;95249.50;4997977;28;20210;-66
2022/06/29 07:33:18;;;;;;;8.38;7.78;;;;;;;28.43;51.29;95244.06;4997941;28;20211;-67
2022/06/29 07:35:45;;;;;;;17.55;11.40;;;;;;;28.54;50.92;95240.31;4996942;28;20235;-65
2022/06/29 07:38:11;;;;;;;9.45;7.63;;;;;;;28.61;50.18;95232.69;4997199;28;20223;-65
2022/06/29 07:40:39;;;;;;;8.25;7.63;;;;;;;28.83;50.61;95234.75;4996129;28;20207;-65
2022/06/29 07:43:06;;;;;;;6.53;5.13;;;;;;;28.74;48.51;95240.88;4997237;28;20198;-63
2022/06/29 07:45:33;;;;;;;5.90;4.78;;;;;;;28.82;48.41;95237.53;4995624;28;20207;-63
2022/06/29 07:48:00;;;;;;;8.90;6.07;;;;;;;28.97;48.52;95234.13;4971519;28;20207;-64
2022/06/29 07:50:27;;;;;;;16.85;11.10;;;;;;;29.10;49.62;95244.16;4993236;28;20215;-63
2022/06/29 07:52:54;;;;;;;6.78;5.60;;;;;;;29.23;46.81;95238.44;4993596;28;20199;-64
2022/06/29 07:55:21;;;;;;;9.48;5.68;;;;;;;29.29;46.89;95232.56;4992471;28;20219;-63
2022/06/29 07:57:50;;;;;;;7.85;6.05;;;;;;;29.32;47.39;95227.81;4994761;28;20930;-63
2022/06/29 08:00:17;;;;;;;11.73;8.73;;;;;;;29.27;48.92;95231.91;4991911;28;21101;-63
2022/06/29 08:02:44;;;;;;;7.80;7.10;;;;;;;28.95;47.92;95230.88;4990929;28;20446;-64
2022/06/29 08:05:11;;;;;;;8.85;6.13;;;;;;;28.79;48.72;95225.53;4992228;28;20270;-65
2022/06/29 08:07:37;;;;;;;6.40;5.70;;;;;;;28.81;48.93;95226.25;4994296;28;20203;-63
2022/06/29 08:10:07;;;;;;;9.25;5.63;;;;;;;28.94;48.78;95225.81;4992740;28;20207;-63
2022/06/29 08:12:35;;;;;;;12.98;8.95;;;;;;;29.08;50.65;95231.22;4993207;28;22721;-64
2022/06/29 08:15:04;;;;;;;7.70;7.05;;;;;;;29.16;49.46;95227.81;4995738;28;20208;-63
2022/06/29 08:17:31;;;;;;;8.20;7.53;;;;;;;28.97;49.45;95228.91;5046613;28;20223;-63
2022/06/29 08:19:57;;;;;;;6.55;5.95;;;;;;;28.84;49.09;95223.31;5046562;28;20306;-64
2022/06/29 08:22:24;;;;;;;6.75;6.05;;;;;;;28.85;49.78;95224.94;5048189;28;20217;-64
2022/06/29 08:24:51;;;;;;;13.10;7.40;;;;;;;28.91;49.08;95229.56;5047517;28;20672;-64
2022/06/29 08:27:21;;;;;;;6.45;5.95;;;;;;;29.08;49.87;95225.16;5046540;28;20265;-64
2022/06/29 08:29:48;;;;;;;13.48;9.32;;;;;;;29.13;48.66;95230.75;5045869;28;20230;-64
2022/06/29 08:32:17;;;;;;;5.72;5.15;;;;;;;29.23;48.43;95227.97;5046399;28;20203;-63
2022/06/29 08:34:43;;;;;;;5.97;5.38;;;;;;;29.30;48.33;95226.34;5043904;28;20195;-63
2022/06/29 08:37:10;;;;;;;7.47;5.53;;;;;;;29.39;47.77;95233.25;5043006;28;20795;-63
2022/06/29 08:39:37;;;;;;;9.52;5.78;;;;;;;29.54;46.71;95221.16;5043223;28;20199;-63
2022/06/29 08:42:05;;;;;;;5.95;5.25;;;;;;;29.54;47.39;95220.34;5044299;28;20253;-63
2022/06/29 08:44:34;;;;;;;6.00;5.03;;;;;;;29.58;47.77;95217.25;5044821;28;20214;-62
2022/06/29 08:47:02;;;;;;;10.13;5.72;;;;;;;29.63;46.24;95222.81;5045749;28;20222;-62
2022/06/29 08:49:31;;;;;;;5.75;5.35;;;;;;;29.63;46.86;95228.03;5047746;28;20700;-63
2022/06/29 08:51:59;;;;;;;9.35;4.65;;;;;;;29.70;46.45;95231.63;5048784;28;20585;-62
2022/06/29 08:54:26;;;;;;;5.80;5.30;;;;;;;29.72;46.24;95224.41;5049587;28;20206;-63
2022/06/29 08:56:54;;;;;;;8.55;5.03;;;;;;;29.94;46.25;95222.97;5049674;28;20229;-63
2022/06/29 08:59:22;;;;;;;3.72;3.45;;;;;;;30.03;43.98;95216.72;5050309;28;20284;-62
2022/06/29 09:01:49;;;;;;;7.25;4.93;;;;;;;30.00;43.60;95226.72;5050603;28;20211;-62
2022/06/29 09:04:16;;;;;;;5.78;4.68;;;;;;;29.66;43.72;95216.44;5050532;28;20276;-63
2022/06/29 09:06:45;;;;;;;6.45;4.13;;;;;;;29.75;42.66;95218.03;5050469;28;20191;-63
2022/06/29 09:09:12;;;;;;;5.65;4.20;;;;;;;29.78;44.89;95215.09;5050137;28;20578;-62
2022/06/29 09:11:43;;;;;;;5.68;4.47;;;;;;;29.68;45.35;95212.66;5050162;28;20581;-63
2022/06/29 09:14:12;;;;;;;7.50;5.93;;;;;;;29.70;46.64;95210.66;5050234;28;20565;-62
2022/06/29 09:17:00;;;;;;;6.72;4.25;;;;;;;29.89;45.34;95208.72;5032015;28;20234;-63
2022/06/29 09:19:29;;;;;;;5.80;5.40;;;;;;;29.95;46.84;95202.78;5030184;28;20655;-62
2022/06/29 09:21:59;;;;;;;6.22;5.72;;;;;;;30.26;46.47;95208.97;5029757;28;20230;-62
2022/06/29 09:24:28;;;;;;;8.50;5.47;;;;;;;30.46;46.14;95212.84;5030554;28;20203;-64
2022/06/29 09:26:58;;;;;;;6.03;4.70;;;;;;;30.01;46.71;95210.00;5029565;28;20327;-64
2022/06/29 09:29:27;;;;;;;6.57;4.25;;;;;;;29.45;47.16;95206.41;5030223;28;20240;-63
2022/06/29 09:32:14;;;;;;;7.97;5.00;;;;;;;29.44;47.16;95205.63;5030256;28;20203;-63
2022/06/29 09:34:43;;;;;;;4.95;4.18;;;;;;;29.62;46.31;95210.69;5030012;28;20209;-64
2022/06/29 09:37:13;;;;;;;4.75;4.35;;;;;;;29.76;44.68;95198.72;5029912;28;20314;-64
2022/06/29 09:39:42;;;;;;;8.32;4.97;;;;;;;29.42;43.86;95212.00;5029765;28;20261;-64
2022/06/29 09:42:10;;;;;;;4.88;4.47;;;;;;;28.87;44.69;95206.47;5029790;28;20706;-65
2022/06/29 09:44:37;;;;;;;4.38;3.80;;;;;;;28.98;45.36;95206.16;5030341;28;20254;-64
2022/06/29 09:47:07;;;;;;;5.88;3.63;;;;;;;28.96;43.87;95198.47;5029785;28;20203;-66
2022/06/29 09:49:36;;;;;;;10.15;4.47;;;;;;;29.05;44.70;95196.69;5030152;28;20228;-62
2022/06/29 09:52:06;;;;;;;8.57;3.92;;;;;;;29.03;45.38;95202.09;5029728;28;20196;-64
2022/06/29 09:54:37;;;;;;;4.47;3.63;;;;;;;29.04;44.02;95195.88;5029854;28;20196;-63
2022/06/29 09:57:06;;;;;;;10.52;4.43;;;;;;;29.26;44.70;95201.47;5029576;28;20231;-64
2022/06/29 10:02:36;;;;;;;4.18;3.88;;;;;;;29.86;42.87;95183.66;5029871;28;20279;-65
2022/06/29 10:05:07;;;;;;;9.27;4.35;;;;;;;30.22;44.01;95178.84;5029694;28;20211;-64
2022/06/29 10:07:35;;;;;;;4.90;3.38;;;;;;;29.81;41.71;95188.56;5030218;28;20262;-64
2022/06/29 10:10:06;;;;;;;5.15;3.78;;;;;;;29.57;42.46;95184.16;5030032;28;20329;-64
2022/06/29 10:16:05;;;;;;;5.93;3.83;;;;;;;29.68;43.17;95186.47;5029610;28;20194;-65
2022/06/29 10:19:11;;;;;;;4.55;3.30;;;;;;;29.32;41.35;95174.66;5030571;28;20238;-64
2022/06/29 10:21:38;;;;;;;4.95;3.50;;;;;;;29.35;41.04;95174.34;4985793;28;20265;-63
2022/06/29 10:24:05;;;;;;;4.22;3.30;;;;;;;28.88;41.80;95184.56;5033354;28;20712;-62
2022/06/29 10:26:45;;;;;;;3.05;2.70;;;;;;;29.03;38.91;95169.88;5033052;28;20231;-64
2022/06/29 10:29:31;;;;;;;5.15;3.33;;;;;;;28.93;41.40;95177.06;5033251;28;20685;-63
2022/06/29 10:32:17;;;;;;;3.30;3.10;;;;;;;29.17;41.02;95176.28;5033510;28;20210;-63
2022/06/29 10:37:31;;;;;;;3.38;3.10;;;;;;;29.70;40.78;95167.94;5032740;28;20676;-63
2022/06/29 10:40:04;;;;;;;4.07;3.40;;;;;;;30.01;39.37;95154.97;5033662;28;20207;-63
2022/06/29 10:45:25;;;;;;;3.20;3.00;;;;;;;29.59;39.42;95158.63;5033215;28;20249;-63
2022/06/29 10:48:31;;;;;;;3.00;2.80;;;;;;;29.64;38.98;95164.22;5032888;28;20733;-63
2022/06/29 10:50:57;;;;;;;4.35;3.30;;;;;;;29.65;38.85;95159.78;5026766;28;20642;-63
2022/06/29 10:53:25;;;;;;;3.15;2.80;;;;;;;29.68;38.00;95155.03;5032799;28;20579;-64
2022/06/29 10:55:55;;;;;;;9.50;3.17;;;;;;;29.78;38.37;95152.22;5032826;28;20204;-64
2022/06/29 10:58:24;;;;;;;4.68;3.67;;;;;;;29.49;38.90;95154.53;5032622;28;20786;-63
2022/06/29 11:00:53;;;;;;;2.92;2.75;;;;;;;29.68;39.27;95154.22;5032383;28;20534;-63
2022/06/29 11:03:22;;;;;;;3.60;3.05;;;;;;;29.66;39.19;95157.00;5032949;28;20253;-65
2022/06/29 11:16:54;;;;;;;2.65;2.55;;;;;;;29.42;38.61;95146.56;4988849;28;20228;-63
2022/06/29 11:19:28;;;;;;;2.67;2.47;;;;;;;29.21;37.06;95140.94;5032935;28;20279;-63
2022/06/29 11:22:13;;;;;;;2.65;2.55;;;;;;;29.26;36.11;95146.50;5032271;28;20234;-63
2022/06/29 11:24:54;;;;;;;3.25;2.70;;;;;;;29.30;36.42;95139.97;5032221;28;20215;-63
2022/06/29 11:27:35;;;;;;;5.38;2.83;;;;;;;29.61;37.32;95125.25;5029929;28;20678;-63
2022/06/29 11:30:05;;;;;;;3.25;3.03;;;;;;;29.41;35.95;95127.41;5030697;28;20206;-63
2022/06/29 11:32:43;;;;;;;3.35;2.30;;;;;;;29.49;36.59;95118.69;5030301;28;20204;-63
2022/06/29 11:35:11;;;;;;;3.83;2.53;;;;;;;29.34;34.11;95130.81;5030482;28;20203;-64
2022/06/29 11:37:38;;;;;;;6.32;3.67;;;;;;;29.78;35.71;95120.78;5029890;28;20231;-63
2022/06/29 11:40:06;;;;;;;3.13;2.90;;;;;;;29.75;36.65;95116.69;5030894;28;20203;-63
2022/06/29 11:45:19;;;;;;;2.95;2.75;;;;;;;29.46;36.20;95103.31;5031689;28;20202;-63
2022/06/29 11:47:53;;;;;;;6.65;3.00;;;;;;;29.43;35.50;95108.91;5030860;28;20898;-63
2022/06/29 11:50:21;;;;;;;5.05;3.50;;;;;;;29.58;37.13;95112.47;5030261;28;20568;-64
2022/06/29 11:52:50;;;;;;;4.07;3.53;;;;;;;29.64;37.63;95111.00;5030109;28;20196;-63
2022/06/29 11:55:17;;;;;;;3.28;2.95;;;;;;;29.89;38.14;95109.16;5030036;28;20257;-65
2022/06/29 11:57:44;;;;;;;4.90;3.08;;;;;;;29.75;36.39;95106.22;5029632;28;20776;-64
2022/06/29 12:00:12;;;;;;;5.05;3.60;;;;;;;29.69;37.02;95093.81;5030155;28;20199;-63
2022/06/29 12:02:40;;;;;;;9.60;2.85;;;;;;;29.48;36.94;95096.13;5030352;28;20204;-64
2022/06/29 12:05:08;;;;;;;9.80;4.25;;;;;;;29.58;36.96;95096.78;5031403;28;20215;-63